createdAt,value
2022-11-22T00:13:11.453Z,6.95
2022-11-22T00:41:47.466Z,6.9
2022-11-22T01:10:26.297Z,6.96
2022-11-22T01:39:05.256Z,7.05
2022-11-22T02:07:23.851Z,7.03
2022-11-22T02:36:01.719Z,6.92
2022-11-22T03:04:37.721Z,6.78
2022-11-22T03:33:10.844Z,6.87
2022-11-22T04:01:44.895Z,6.91
2022-11-22T04:30:24.895Z,6.57
2022-11-22T04:58:57.300Z,6.23
2022-11-22T05:27:17.831Z,6.16
2022-11-22T06:24:23.454Z,6.24
2022-11-22T07:21:23.737Z,6.03
2022-11-22T07:49:57.742Z,6.13
2022-11-22T08:18:27.319Z,6.43
2022-11-22T08:47:00.105Z,6.75
2022-11-22T09:15:21.635Z,7.08
2022-11-22T09:43:45.374Z,7.39
2022-11-22T10:12:01.534Z,7.41
2022-11-22T10:40:36.581Z,7.54
2022-11-22T11:37:25.261Z,7.74
2022-11-22T12:05:34.784Z,7.93
2022-11-22T12:33:55.207Z,8.17
2022-11-22T13:02:23.944Z,8.19
2022-11-22T13:30:52.125Z,8.3
2022-11-22T13:59:20.836Z,8.1
2022-11-22T14:27:49.709Z,7.67
2022-11-22T14:56:05.881Z,7.49
2022-11-22T16:20:53.313Z,7.14
2022-11-22T16:49:15.683Z,7.03
2022-11-22T17:17:36.831Z,7.08
2022-11-22T17:45:50.741Z,7
2022-11-22T18:14:27.465Z,6.92
2022-11-22T18:43:47.023Z,6.79
2022-11-22T19:11:47.148Z,6.76
2022-11-22T19:40:19.737Z,6.81
2022-11-22T20:08:50.533Z,6.6
2022-11-22T20:37:06.541Z,6.7
2022-11-22T21:05:44.117Z,6.68
2022-11-22T21:34:18.189Z,6.62
2022-11-22T22:02:48.943Z,6.48
2022-11-22T22:31:29.506Z,6.54
2022-11-22T23:00:08.776Z,6.49
2022-11-22T23:28:45.025Z,6.41
2022-11-22T23:57:23.584Z,6.35
